Narowal Weather



Narowal's Current Weather

Temprature 19o smoke

smoke

Rain: 0 %

Min Temprature19o
Max Temprature19o
Humidity52
Wind Speed3.1 m/h
Sun Rise06:34:48
Sun Set17:53:22
Current Time: 23-Feb-2019 16:34:30
Lat/Lon: 32.1, 74.87




Narowal's Geo Location




Narowal's Weather Forecast

Time Overall Temp Min Temp Max Temp Humidity Wind Speed Rain
23-Feb-2019 (Sat)
17:00:00 clear sky 17.900 17.274 17.900 66 1.96 m/h 0 %
20:00:00 clear sky 10.010 9.534 10.010 88 1.52 m/h 0 %
23:00:00 clear sky 6.550 6.240 6.550 82 1.27 m/h 0 %
24-Feb-2019 (Sun)
02:00:00 clear sky 4.920 4.760 4.920 80 1.21 m/h 0 %
05:00:00 clear sky 3.767 3.767 3.767 80 0.16 m/h 0 %
08:00:00 clear sky 7.253 7.253 7.253 77 1.06 m/h 0 %
11:00:00 clear sky 18.024 18.024 18.024 75 2.01 m/h 0 %
14:00:00 clear sky 19.981 19.981 19.981 63 2.12 m/h 0 %
17:00:00 clear sky 18.921 18.921 18.921 50 1.35 m/h 0 %
20:00:00 few clouds 10.218 10.218 10.218 71 1.86 m/h 0 %
23:00:00 broken clouds 8.311 8.311 8.311 75 1.36 m/h 0 %
25-Feb-2019 (Mon)
02:00:00 scattered clouds 7.955 7.955 7.955 74 1.22 m/h 0 %
05:00:00 overcast clouds 7.202 7.202 7.202 71 1.31 m/h 0 %
08:00:00 broken clouds 9.970 9.970 9.970 64 1.42 m/h 0 %
11:00:00 overcast clouds 17.447 17.447 17.447 59 1.86 m/h 0 %
14:00:00 broken clouds 19.548 19.548 19.548 52 2.02 m/h 0 %
17:00:00 scattered clouds 19.537 19.537 19.537 46 2.41 m/h 0 %
20:00:00 light rain 10.198 10.198 10.198 87 1.76 m/h 87 %
23:00:00 light rain 9.617 9.617 9.617 92 2.11 m/h 232 %
26-Feb-2019 (Tue)
02:00:00 moderate rain 9.276 9.276 9.276 97 1.36 m/h 319 %
05:00:00 moderate rain 9.922 9.922 9.922 93 4.31 m/h 447 %
08:00:00 light rain 11.082 11.082 11.082 96 2.42 m/h 249 %
11:00:00 light rain 12.417 12.417 12.417 100 2.07 m/h 242 %
14:00:00 light rain 12.471 12.471 12.471 99 4.66 m/h 231 %
17:00:00 light rain 11.014 11.014 11.014 95 3.46 m/h 113 %
20:00:00 light rain 9.336 9.336 9.336 94 1.87 m/h 39 %
23:00:00 light rain 8.998 8.998 8.998 94 1.37 m/h 52 %
27-Feb-2019 (Wed)
02:00:00 light rain 8.906 8.906 8.906 95 1.41 m/h 29 %
05:00:00 light rain 8.919 8.919 8.919 95 1.3 m/h 20 %
08:00:00 light rain 9.540 9.540 9.540 98 1.97 m/h 29 %
11:00:00 light rain 11.620 11.620 11.620 100 3.76 m/h 12 %
14:00:00 light rain 13.236 13.236 13.236 100 3.2 m/h 50 %
17:00:00 light rain 13.223 13.223 13.223 88 1.76 m/h 34 %
20:00:00 clear sky 7.617 7.617 7.617 85 1.17 m/h 0 %
23:00:00 clear sky 5.216 5.216 5.216 80 1.32 m/h 0 %
28-Feb-2019 (Thu)
02:00:00 scattered clouds 4.041 4.041 4.041 81 1.46 m/h 0 %
05:00:00 few clouds 2.863 2.863 2.863 82 1.41 m/h 0 %
08:00:00 few clouds 6.365 6.365 6.365 75 2.11 m/h 0 %
11:00:00 overcast clouds 12.272 12.272 12.272 84 1.96 m/h 0 %
14:00:00 overcast clouds 14.279 14.279 14.279 75 1.97 m/h 0 %

Famous Cities (60)